Terminal Aerodrome Forecast
Issued by NWS

Current Version | Previous Version | Graphics & Text | Print | Product List | Glossary On
Versions: 1 2 3 4 5 6 7 8 9 10 11 12 13 14 15 16 17
000
FTUS41 KILN 010200 AAA
TAFLCK
TAF AMD
KLCK 010241Z 0103/0124 36010KT P6SM BKN040 OVC080
      TEMPO 0103/0107 BKN020 OVC040
     FM011100 01010KT P6SM FEW050
     FM011500 35011KT P6SM SCT050
     FM012200 35006KT P6SM FEW060=

USA.gov is the U.S. government's official web portal to all federal, state and local government web resources and services.